createdAt,value
2023-01-17T00:02:08.826Z,6.40
2023-01-17T00:04:54.311Z,6.50
2023-01-17T00:07:41.413Z,6.50
2023-01-17T00:10:12.196Z,6.40
2023-01-17T00:12:46.740Z,6.20
2023-01-17T00:15:14.754Z,6.20
2023-01-17T00:17:42.733Z,5.90
2023-01-17T00:20:32.575Z,6.30
2023-01-17T00:23:18.105Z,6.50
2023-01-17T00:26:04.212Z,6.50
2023-01-17T00:28:34.417Z,6.50
2023-01-17T00:31:01.655Z,6.40
2023-01-17T00:33:28.889Z,6.40
2023-01-17T00:35:57.659Z,6.40
2023-01-17T00:38:26.295Z,6.40
2023-01-17T00:40:53.529Z,6.50
2023-01-17T00:43:41.507Z,6.50
2023-01-17T00:46:28.563Z,6.50
2023-01-17T00:49:13.780Z,6.40
2023-01-17T00:51:59.468Z,6.30
2023-01-17T00:54:45.039Z,6.50
2023-01-17T00:57:30.464Z,6.30
2023-01-17T01:00:16.104Z,6.40
2023-01-17T01:03:03.067Z,6.40
2023-01-17T01:05:48.595Z,6.30
2023-01-17T01:08:40.484Z,6.30
2023-01-17T01:11:28.509Z,6.40
2023-01-17T01:14:14.882Z,6.40
2023-01-17T01:17:00.616Z,6.30
2023-01-17T01:19:47.342Z,6.40
2023-01-17T01:22:32.853Z,6.50
2023-01-17T01:25:18.325Z,6.50
2023-01-17T01:28:03.665Z,6.40
2023-01-17T01:30:49.277Z,6.40
2023-01-17T01:33:18.937Z,6.50
2023-01-17T01:35:49.495Z,6.40
2023-01-17T01:38:18.082Z,6.30
2023-01-17T01:40:48.379Z,6.30
2023-01-17T01:43:19.713Z,6.40
2023-01-17T01:45:51.311Z,6.50
2023-01-17T01:48:34.632Z,6.60
2023-01-17T01:51:07.104Z,6.70
2023-01-17T01:53:38.067Z,6.50
2023-01-17T01:56:09.815Z,6.50
2023-01-17T01:58:39.079Z,6.40
2023-01-17T02:01:09.474Z,6.30
2023-01-17T02:03:40.855Z,6.30
2023-01-17T02:06:21.710Z,6.20
2023-01-17T02:08:50.331Z,6.20
2023-01-17T02:11:18.570Z,6.10
2023-01-17T02:13:46.593Z,6.10
2023-01-17T02:16:26.635Z,6.00
2023-01-17T02:19:01.145Z,5.90
2023-01-17T02:21:35.221Z,5.90
2023-01-17T02:24:40.927Z,5.90
2023-01-17T02:27:17.222Z,5.80
2023-01-17T02:30:14.881Z,5.90
2023-01-17T02:32:54.086Z,5.80
2023-01-17T02:35:30.936Z,5.80
2023-01-17T02:38:07.579Z,5.70
2023-01-17T02:40:40.545Z,5.70
2023-01-17T02:43:11.743Z,5.60
2023-01-17T02:45:39.823Z,5.50
2023-01-17T02:48:11.970Z,5.30
2023-01-17T02:50:59.100Z,5.30
2023-01-17T02:53:36.892Z,5.20
2023-01-17T02:56:13.127Z,5.30
2023-01-17T02:58:58.495Z,5.20
2023-01-17T03:01:31.755Z,5.10
2023-01-17T03:04:05.688Z,5.00
2023-01-17T03:06:37.691Z,5.10
2023-01-17T03:09:06.616Z,5.00
2023-01-17T03:11:35.019Z,5.00
2023-01-17T03:14:03.252Z,4.90
2023-01-17T03:16:34.150Z,4.90
2023-01-17T03:19:03.625Z,4.90
2023-01-17T03:21:31.713Z,4.90
2023-01-17T03:23:59.749Z,4.80
2023-01-17T03:26:27.983Z,4.80
2023-01-17T03:28:55.951Z,4.70
2023-01-17T03:31:23.889Z,4.70
2023-01-17T03:33:51.975Z,4.70
2023-01-17T03:36:21.293Z,4.60
2023-01-17T03:38:49.263Z,4.60
2023-01-17T03:41:17.273Z,4.40
2023-01-17T03:43:45.244Z,4.40
2023-01-17T03:46:20.729Z,4.50
2023-01-17T03:48:48.794Z,4.40
2023-01-17T03:51:17.188Z,4.40
2023-01-17T03:53:47.374Z,4.30
2023-01-17T03:56:15.702Z,4.30
2023-01-17T03:58:43.862Z,4.30
2023-01-17T04:01:12.328Z,4.40
2023-01-17T04:03:40.600Z,4.30
2023-01-17T04:06:08.867Z,4.30
2023-01-17T04:08:36.848Z,4.30
2023-01-17T04:11:06.417Z,4.20
2023-01-17T04:13:34.616Z,4.20
2023-01-17T04:16:02.610Z,4.10
2023-01-17T04:18:30.576Z,4.40
2023-01-17T04:20:58.575Z,4.30
2023-01-17T04:23:26.646Z,4.20
2023-01-17T04:25:54.631Z,4.20
2023-01-17T04:28:23.948Z,4.20
2023-01-17T04:30:51.941Z,4.20
2023-01-17T04:33:20.010Z,4.30
2023-01-17T04:35:48.020Z,4.40
2023-01-17T04:38:15.974Z,4.40
2023-01-17T04:40:43.946Z,4.40
2023-01-17T04:43:11.940Z,4.40
2023-01-17T04:45:41.308Z,4.50
2023-01-17T04:48:12.590Z,4.50
2023-01-17T04:50:41.000Z,4.50
2023-01-17T04:53:08.974Z,4.50
2023-01-17T04:55:36.937Z,4.50
2023-01-17T04:58:04.985Z,4.50
2023-01-17T05:00:33.009Z,4.50
2023-01-17T05:03:02.404Z,4.60
2023-01-17T05:05:30.943Z,4.60
2023-01-17T05:07:59.759Z,4.60
2023-01-17T05:10:27.941Z,4.60
2023-01-17T05:12:56.788Z,4.60
2023-01-17T05:15:26.079Z,4.60
2023-01-17T05:17:55.146Z,4.50
2023-01-17T05:20:26.979Z,4.60
2023-01-17T05:22:56.461Z,4.60
2023-01-17T05:25:24.567Z,4.60
2023-01-17T05:27:52.650Z,4.70
2023-01-17T05:30:21.772Z,4.70
2023-01-17T05:32:50.516Z,4.70
2023-01-17T05:35:19.722Z,4.70
2023-01-17T05:37:50.008Z,4.70
2023-01-17T05:40:18.701Z,4.60
2023-01-17T05:42:47.694Z,4.60
2023-01-17T05:45:17.703Z,4.70
2023-01-17T05:47:46.334Z,4.70
2023-01-17T05:50:15.915Z,4.80
2023-01-17T05:52:52.063Z,4.90
2023-01-17T05:55:20.774Z,5.00
2023-01-17T05:57:48.912Z,5.00
2023-01-17T06:00:17.445Z,4.80
2023-01-17T06:02:46.185Z,4.70
2023-01-17T06:05:14.640Z,4.80
2023-01-17T06:07:44.827Z,4.70
2023-01-17T06:10:15.413Z,4.80
2023-01-17T06:12:44.332Z,4.90
2023-01-17T06:15:13.072Z,5.00
2023-01-17T06:17:41.048Z,5.00
2023-01-17T06:20:11.336Z,5.00
2023-01-17T06:22:39.364Z,5.00
2023-01-17T06:25:08.026Z,5.00
2023-01-17T06:27:37.725Z,5.00
2023-01-17T06:30:06.773Z,5.00
2023-01-17T06:32:34.786Z,4.90
2023-01-17T06:35:02.792Z,4.90
2023-01-17T06:37:30.774Z,4.90
2023-01-17T06:39:58.766Z,5.00
2023-01-17T06:42:26.720Z,5.00
2023-01-17T06:44:56.079Z,5.20
2023-01-17T06:47:24.112Z,5.10
2023-01-17T06:49:52.117Z,5.20
2023-01-17T06:52:20.074Z,5.10
2023-01-17T06:54:48.073Z,5.10
2023-01-17T06:57:16.037Z,5.20
2023-01-17T06:59:43.992Z,5.20
2023-01-17T07:02:13.537Z,5.00
2023-01-17T07:04:41.517Z,5.10
2023-01-17T07:07:09.563Z,5.20
2023-01-17T07:09:37.585Z,5.20
2023-01-17T07:12:05.744Z,5.20
2023-01-17T07:14:33.986Z,5.20
2023-01-17T07:17:01.950Z,5.30
2023-01-17T07:19:31.304Z,5.30
2023-01-17T07:21:59.262Z,5.40
2023-01-17T07:24:27.227Z,5.40
2023-01-17T07:26:55.250Z,5.40
2023-01-17T07:29:23.220Z,5.40
2023-01-17T07:31:51.197Z,5.40
2023-01-17T07:34:19.151Z,5.40
2023-01-17T07:36:49.779Z,5.40
2023-01-17T07:39:17.835Z,5.40
2023-01-17T07:41:47.107Z,5.40
2023-01-17T07:44:15.509Z,5.50
2023-01-17T07:46:43.628Z,5.50
2023-01-17T07:49:11.792Z,5.50
2023-01-17T07:51:39.773Z,5.40
2023-01-17T07:54:09.120Z,5.40
2023-01-17T07:56:37.093Z,5.40
2023-01-17T07:59:05.045Z,5.50
2023-01-17T08:01:33.106Z,5.40
2023-01-17T08:04:01.161Z,5.40
2023-01-17T08:06:29.952Z,5.50
2023-01-17T08:08:59.524Z,5.50
2023-01-17T08:11:28.871Z,5.50
2023-01-17T08:13:59.359Z,5.60
2023-01-17T08:16:29.746Z,5.60
2023-01-17T08:18:58.209Z,5.50
2023-01-17T08:21:26.193Z,5.60
2023-01-17T08:23:54.304Z,5.70
2023-01-17T08:26:23.564Z,5.60
2023-01-17T08:28:56.259Z,5.60
2023-01-17T08:31:27.052Z,5.70
2023-01-17T08:33:55.068Z,5.80
2023-01-17T08:36:25.695Z,6.30
2023-01-17T08:38:53.812Z,6.00
2023-01-17T08:41:22.090Z,6.00
2023-01-17T08:43:50.482Z,6.10
2023-01-17T08:46:20.253Z,6.10
2023-01-17T08:48:48.233Z,6.10
2023-01-17T08:51:16.262Z,6.20
2023-01-17T08:53:44.214Z,6.20
2023-01-17T08:56:12.265Z,6.40
2023-01-17T08:58:41.517Z,6.40
2023-01-17T09:01:09.632Z,6.40
2023-01-17T09:03:40.893Z,6.30
2023-01-17T09:06:10.365Z,6.30
2023-01-17T09:08:39.397Z,6.30
2023-01-17T09:11:08.477Z,6.30
2023-01-17T09:13:36.686Z,6.30
2023-01-17T09:16:05.927Z,6.40
2023-01-17T09:18:34.965Z,6.40
2023-01-17T09:21:12.549Z,6.50
2023-01-17T09:23:40.540Z,6.50
2023-01-17T09:26:08.852Z,6.50
2023-01-17T09:28:41.079Z,6.60
2023-01-17T09:31:09.396Z,6.60
2023-01-17T09:33:37.648Z,6.70
2023-01-17T09:36:06.228Z,6.80
2023-01-17T09:38:35.648Z,6.90
2023-01-17T09:41:04.530Z,7.00
2023-01-17T09:43:41.464Z,7.00
2023-01-17T09:46:22.463Z,7.00
2023-01-17T09:48:51.939Z,7.20
2023-01-17T09:51:24.217Z,7.10
2023-01-17T09:53:54.246Z,7.20
2023-01-17T09:56:29.801Z,7.20
2023-01-17T09:59:19.213Z,7.30
2023-01-17T10:01:56.255Z,7.40
2023-01-17T10:04:49.148Z,7.40
2023-01-17T10:07:28.428Z,7.50
2023-01-17T10:10:27.237Z,7.40
2023-01-17T10:13:00.201Z,7.30
2023-01-17T10:15:54.660Z,7.40
2023-01-17T10:18:44.240Z,7.40
2023-01-17T10:21:17.845Z,7.40
2023-01-17T10:24:03.645Z,7.20
2023-01-17T10:26:35.201Z,7.10
2023-01-17T10:29:06.695Z,7.00
2023-01-17T10:31:41.656Z,6.90
2023-01-17T10:34:16.283Z,7.00
2023-01-17T10:36:48.805Z,6.90
2023-01-17T10:39:22.052Z,6.90
2023-01-17T10:41:56.881Z,6.90
2023-01-17T10:44:31.201Z,7.00
2023-01-17T10:47:08.012Z,7.10
2023-01-17T10:49:37.272Z,7.10
2023-01-17T10:52:16.860Z,7.10
2023-01-17T10:55:06.491Z,7.00
2023-01-17T10:57:42.040Z,7.10
2023-01-17T11:00:29.287Z,7.10
2023-01-17T11:02:57.488Z,7.10
2023-01-17T11:05:28.778Z,7.00
2023-01-17T11:08:01.694Z,7.00
2023-01-17T11:10:40.333Z,7.10
2023-01-17T11:13:24.750Z,7.10
2023-01-17T11:15:57.548Z,7.10
2023-01-17T11:18:28.725Z,7.20
2023-01-17T11:21:12.246Z,7.30
2023-01-17T11:23:42.412Z,7.30
2023-01-17T11:26:13.401Z,7.30
2023-01-17T11:28:42.969Z,7.30
2023-01-17T11:31:26.811Z,7.30
2023-01-17T11:34:15.770Z,7.40
2023-01-17T11:36:44.158Z,7.40
2023-01-17T11:39:27.565Z,7.40
2023-01-17T11:41:56.052Z,7.40
2023-01-17T11:44:27.604Z,7.40
2023-01-17T11:47:19.241Z,7.40
2023-01-17T11:49:48.874Z,7.50
2023-01-17T11:52:24.395Z,7.50
2023-01-17T11:54:55.268Z,7.50
2023-01-17T11:57:26.747Z,7.50
2023-01-17T12:00:04.950Z,7.40
2023-01-17T12:02:45.710Z,7.40
2023-01-17T12:05:34.250Z,7.40
2023-01-17T12:08:10.909Z,7.40
2023-01-17T12:10:49.497Z,7.40
2023-01-17T12:13:47.749Z,7.40
2023-01-17T12:16:31.217Z,7.50
2023-01-17T12:19:16.762Z,7.50
2023-01-17T12:21:57.096Z,7.50
2023-01-17T12:24:45.189Z,7.50
2023-01-17T12:27:20.790Z,7.50
2023-01-17T12:29:58.891Z,7.50
2023-01-17T12:32:50.455Z,7.50
2023-01-17T12:35:22.074Z,7.60
2023-01-17T12:38:04.425Z,7.60
2023-01-17T12:40:37.352Z,7.60
2023-01-17T12:43:14.442Z,7.60
2023-01-17T12:45:46.190Z,7.60
2023-01-17T12:48:19.211Z,7.50
2023-01-17T12:50:53.615Z,7.50
2023-01-17T12:53:28.169Z,7.50
2023-01-17T12:56:01.046Z,7.50
2023-01-17T12:58:35.147Z,7.50
2023-01-17T13:01:08.403Z,7.40
2023-01-17T13:03:47.466Z,7.50
2023-01-17T13:06:25.019Z,7.50
2023-01-17T13:08:57.589Z,7.40
2023-01-17T13:11:30.799Z,7.40
2023-01-17T13:13:59.924Z,7.40
2023-01-17T13:16:34.616Z,7.30
2023-01-17T13:19:12.532Z,7.30
2023-01-17T13:21:42.556Z,7.40
2023-01-17T13:24:30.171Z,7.40
2023-01-17T13:27:19.072Z,7.40
2023-01-17T13:30:00.703Z,7.40
2023-01-17T13:32:51.950Z,7.40
2023-01-17T13:35:42.059Z,7.40
2023-01-17T13:38:30.818Z,7.40
2023-01-17T13:41:08.793Z,7.40
2023-01-17T13:43:40.054Z,7.50
2023-01-17T13:46:08.541Z,7.50
2023-01-17T13:48:38.443Z,7.40
2023-01-17T13:51:08.950Z,7.50
2023-01-17T13:53:58.372Z,7.40
2023-01-17T13:56:44.084Z,7.40
2023-01-17T13:59:30.715Z,7.50
2023-01-17T14:01:59.046Z,7.50
2023-01-17T14:05:15.210Z,7.50
2023-01-17T14:07:48.648Z,7.50
2023-01-17T14:10:33.269Z,7.50
2023-01-17T14:13:02.242Z,7.50
2023-01-17T14:15:33.357Z,7.90
2023-01-17T14:18:03.188Z,7.40
2023-01-17T14:20:54.814Z,7.40
2023-01-17T14:23:30.282Z,7.40
2023-01-17T14:26:01.344Z,7.30
2023-01-17T14:28:33.566Z,7.20
2023-01-17T14:31:08.668Z,7.20
2023-01-17T14:33:39.704Z,7.20
2023-01-17T14:36:09.865Z,7.10
2023-01-17T14:38:43.794Z,7.10
2023-01-17T14:41:17.314Z,7.10
2023-01-17T14:43:46.427Z,7.10
2023-01-17T14:46:19.836Z,7.10
2023-01-17T14:48:47.923Z,7.00
2023-01-17T14:51:21.328Z,7.10
2023-01-17T14:53:58.440Z,7.10
2023-01-17T14:56:27.690Z,7.00
2023-01-17T14:59:06.877Z,7.00
2023-01-17T15:01:36.349Z,7.00
2023-01-17T15:04:04.867Z,7.20
2023-01-17T15:06:39.353Z,7.00
2023-01-17T15:09:13.441Z,6.90
2023-01-17T15:11:42.570Z,6.90
2023-01-17T15:14:18.459Z,6.80
2023-01-17T15:16:46.510Z,6.80
2023-01-17T15:19:15.914Z,6.70
2023-01-17T15:21:45.549Z,6.70
2023-01-17T15:24:20.734Z,6.80
2023-01-17T15:26:49.665Z,6.80
2023-01-17T15:29:24.647Z,6.80
2023-01-17T15:31:55.134Z,6.80
2023-01-17T15:34:28.123Z,6.70
2023-01-17T15:36:58.043Z,6.70
2023-01-17T15:39:30.309Z,6.60
2023-01-17T15:42:00.044Z,6.60
2023-01-17T15:44:47.057Z,6.50
2023-01-17T15:47:30.705Z,6.50
2023-01-17T15:49:59.926Z,6.50
2023-01-17T15:52:28.638Z,6.40
2023-01-17T15:55:12.512Z,6.40
2023-01-17T15:57:40.978Z,6.40
2023-01-17T16:00:21.926Z,6.30
2023-01-17T16:02:55.260Z,6.30
2023-01-17T16:05:38.709Z,6.30
2023-01-17T16:08:26.039Z,6.30
2023-01-17T16:10:59.172Z,6.30
2023-01-17T16:13:27.212Z,6.30
2023-01-17T16:15:55.260Z,6.20
2023-01-17T16:18:25.667Z,6.20
2023-01-17T16:20:59.984Z,6.20
2023-01-17T16:23:28.701Z,6.30
2023-01-17T16:25:58.091Z,6.10
2023-01-17T16:28:26.163Z,6.10
2023-01-17T16:30:54.635Z,6.10
2023-01-17T16:33:22.661Z,6.00
2023-01-17T16:35:51.236Z,6.20
2023-01-17T16:38:19.761Z,6.20
2023-01-17T16:40:48.604Z,6.10
2023-01-17T16:43:20.217Z,6.10
2023-01-17T16:45:50.411Z,6.10
2023-01-17T16:48:19.426Z,6.00
2023-01-17T16:50:50.698Z,6.10
2023-01-17T16:53:24.275Z,6.20
2023-01-17T16:55:57.582Z,6.10
2023-01-17T16:58:26.945Z,5.80
2023-01-17T17:00:56.598Z,5.80
2023-01-17T17:03:25.013Z,5.80
2023-01-17T17:05:57.493Z,5.80
2023-01-17T17:08:25.560Z,5.80
2023-01-17T17:10:53.617Z,5.90
2023-01-17T17:13:21.588Z,6.00
2023-01-17T17:15:51.082Z,5.90
2023-01-17T17:18:19.499Z,5.80
2023-01-17T17:20:49.562Z,5.80
2023-01-17T17:23:17.556Z,5.70
2023-01-17T17:25:45.565Z,5.90
2023-01-17T17:28:13.606Z,5.80
2023-01-17T17:30:41.584Z,5.90
2023-01-17T17:33:10.914Z,5.90
2023-01-17T17:35:38.905Z,5.70
2023-01-17T17:38:06.854Z,5.60
2023-01-17T17:40:35.592Z,5.60
2023-01-17T17:43:03.819Z,5.80
2023-01-17T17:45:31.783Z,5.60
2023-01-17T17:48:00.012Z,5.60
2023-01-17T17:50:29.385Z,5.60
2023-01-17T17:52:57.322Z,5.40
2023-01-17T17:55:25.373Z,5.50
2023-01-17T17:57:53.621Z,5.60
2023-01-17T18:00:23.128Z,5.60
2023-01-17T18:02:51.101Z,5.70
2023-01-17T18:05:19.098Z,5.70
2023-01-17T18:07:50.907Z,5.80
2023-01-17T18:10:19.222Z,5.80
2023-01-17T18:12:47.181Z,5.90
2023-01-17T18:15:15.308Z,5.90
2023-01-17T18:17:43.326Z,5.90
2023-01-17T18:20:12.281Z,5.90
2023-01-17T18:22:40.821Z,5.70
2023-01-17T18:25:12.665Z,5.70
2023-01-17T18:27:42.410Z,5.50
2023-01-17T18:30:12.487Z,5.40
2023-01-17T18:32:41.914Z,5.40
2023-01-17T18:35:10.653Z,5.30
2023-01-17T18:37:38.590Z,5.30
2023-01-17T18:40:08.111Z,5.50
2023-01-17T18:42:37.440Z,5.60
2023-01-17T18:45:06.309Z,5.60
2023-01-17T18:47:34.294Z,5.60
2023-01-17T18:50:02.282Z,5.60
2023-01-17T18:52:30.230Z,5.60
2023-01-17T18:54:58.192Z,5.40
2023-01-17T18:57:26.175Z,5.30
2023-01-17T18:59:55.481Z,5.40
2023-01-17T19:02:23.534Z,5.30
2023-01-17T19:04:51.570Z,5.30
2023-01-17T19:07:21.240Z,5.40
2023-01-17T19:09:49.204Z,5.60
2023-01-17T19:12:17.777Z,5.60
2023-01-17T19:14:46.592Z,5.60
2023-01-17T19:17:15.919Z,5.30
2023-01-17T19:19:43.871Z,5.30
2023-01-17T19:22:12.045Z,5.30
2023-01-17T19:24:40.770Z,5.40
2023-01-17T19:27:08.768Z,5.50
2023-01-17T19:29:37.080Z,5.40
2023-01-17T19:32:05.173Z,5.30
2023-01-17T19:34:34.635Z,5.30
2023-01-17T19:37:03.013Z,5.50
2023-01-17T19:39:31.538Z,5.50
2023-01-17T19:41:59.488Z,5.40
2023-01-17T19:44:27.552Z,5.40
2023-01-17T19:46:57.473Z,5.50
2023-01-17T19:49:25.452Z,5.40
2023-01-17T19:51:54.770Z,5.30
2023-01-17T19:54:23.391Z,5.10
2023-01-17T19:56:51.395Z,5.20
2023-01-17T19:59:20.104Z,5.30
2023-01-17T20:01:49.059Z,5.30
2023-01-17T20:04:18.067Z,5.30
2023-01-17T20:06:47.344Z,5.10
2023-01-17T20:09:16.696Z,5.00
2023-01-17T20:11:45.549Z,5.00
2023-01-17T20:14:15.194Z,5.00
2023-01-17T20:16:43.588Z,4.90
2023-01-17T20:19:11.677Z,4.90
2023-01-17T20:21:39.696Z,5.00
2023-01-17T20:24:08.923Z,5.10
2023-01-17T20:26:38.276Z,5.10
2023-01-17T20:29:10.155Z,5.30
2023-01-17T20:31:39.324Z,5.10
2023-01-17T20:34:08.116Z,5.30
2023-01-17T20:36:36.996Z,5.40
2023-01-17T20:39:06.501Z,5.60
2023-01-17T20:41:35.938Z,5.40
2023-01-17T20:44:06.763Z,5.30
2023-01-17T20:46:40.409Z,5.40
2023-01-17T20:49:13.377Z,5.40
2023-01-17T20:51:41.837Z,5.40
2023-01-17T20:54:12.973Z,5.40
2023-01-17T20:56:41.548Z,5.50
2023-01-17T20:59:14.497Z,5.60
2023-01-17T21:01:43.687Z,5.70
2023-01-17T21:04:12.970Z,5.70
2023-01-17T21:06:42.873Z,5.70
2023-01-17T21:09:12.963Z,5.80
2023-01-17T21:11:41.049Z,5.90
2023-01-17T21:14:10.643Z,6.00
2023-01-17T21:16:38.701Z,6.00
2023-01-17T21:19:09.219Z,5.90
2023-01-17T21:21:37.214Z,6.00
2023-01-17T21:24:06.018Z,5.80
2023-01-17T21:26:34.105Z,5.60
2023-01-17T21:29:02.231Z,5.40
2023-01-17T21:31:34.755Z,5.40
2023-01-17T21:34:04.962Z,5.30
2023-01-17T21:36:34.489Z,4.90
2023-01-17T21:39:05.234Z,4.80
2023-01-17T21:41:35.513Z,5.00
2023-01-17T21:44:05.110Z,5.20
2023-01-17T21:46:37.463Z,5.50
2023-01-17T21:49:05.644Z,5.40
2023-01-17T21:52:00.616Z,5.50
2023-01-17T21:54:47.702Z,5.50
2023-01-17T21:57:35.036Z,5.60
2023-01-17T22:00:03.639Z,5.60
2023-01-17T22:02:33.052Z,5.30
2023-01-17T22:05:01.038Z,5.30
2023-01-17T22:07:29.218Z,5.10
2023-01-17T22:09:57.775Z,5.00
2023-01-17T22:12:25.911Z,5.00
2023-01-17T22:14:54.444Z,5.10
2023-01-17T22:17:22.427Z,5.20
2023-01-17T22:19:51.744Z,5.30
2023-01-17T22:22:19.783Z,5.20
2023-01-17T22:24:47.780Z,5.30
2023-01-17T22:27:15.810Z,5.20
2023-01-17T22:29:43.764Z,5.20
2023-01-17T22:32:11.792Z,5.10
2023-01-17T22:34:39.741Z,5.20
2023-01-17T22:37:11.057Z,5.20
2023-01-17T22:39:39.572Z,5.00
2023-01-17T22:42:08.358Z,5.20
2023-01-17T22:44:36.358Z,5.10
2023-01-17T22:47:04.322Z,5.30
2023-01-17T22:49:32.357Z,5.40
2023-01-17T22:52:00.313Z,5.40
2023-01-17T22:54:29.705Z,5.40
2023-01-17T22:56:58.801Z,5.40
2023-01-17T22:59:26.800Z,5.30
2023-01-17T23:01:55.016Z,5.10
2023-01-17T23:04:23.003Z,5.20
2023-01-17T23:06:50.983Z,5.20
2023-01-17T23:09:19.054Z,5.30
2023-01-17T23:11:52.050Z,5.50
2023-01-17T23:14:21.708Z,5.70
2023-01-17T23:17:11.836Z,5.60
2023-01-17T23:19:42.100Z,5.60
2023-01-17T23:22:19.291Z,5.50
2023-01-17T23:24:52.043Z,5.60
2023-01-17T23:27:42.103Z,5.50
2023-01-17T23:30:13.045Z,5.60
2023-01-17T23:32:44.619Z,5.50
2023-01-17T23:35:12.884Z,5.40
2023-01-17T23:37:58.661Z,5.50
2023-01-17T23:40:26.657Z,5.50
2023-01-17T23:43:13.380Z,5.30
2023-01-17T23:45:41.403Z,5.40
2023-01-17T23:48:10.755Z,5.60
2023-01-17T23:50:39.817Z,5.50
2023-01-17T23:53:08.278Z,5.50
2023-01-17T23:55:37.561Z,5.50
2023-01-17T23:58:07.886Z,5.00
